Monroe, NE (68647)

19:10 CDT le 26 septembre 2016 (GMT -0500)
KNEMONRO3 | | Change Station

Alt. 1525 ft 41.47 °N, 97.62 °W | Updated 5 seconds ago

Clear
Ciel dégagé
69.4 ° F
Paraît 69.4 ° F
N
3.8
Vent Variable Vent de Sud
Gusts 6.0 mph

Aujourd'hui
Haut(e) -- | Bas -- ° F
--% Risque de précip.
Hier
Haut(e) -- | Bas -- ° F
Precip. -- pouce
Pression 30.11 pouce
Visibilité 10.0 Miles terrestres
Nuages Ciel dégagé
Point de rosée 33 ° F
Humidité 26%
Précipitations 0.00 pouce
Profondeur de la couche neigeuse Non disponible.
7:22 AM 7:19 PM
Lune descendante, 15% visible
METAR KBVN 262355Z AUTO 33008KT 10SM CLR 20/04 A3011 RMK AO2 T02030041 10238 20203
Pression 30.11 pouce
Visibilité 10.0 Miles terrestres
Nuages Ciel dégagé
Point de rosée 33 ° F
Humidité 26%
Précipitations 0.00 pouce
Profondeur de la couche neigeuse Non disponible.
7:22 AM 7:19 PM
Lune descendante, 15% visible
METAR KBVN 262355Z AUTO 33008KT 10SM CLR 20/04 A3011 RMK AO2 T02030041 10238 20203

10-Day Weather Forecast

Almanac

Astronomie

Sep. 26, 2016 Lever Coucher
Temps réel
Crépuscule civil
Crépuscule nautique
Crépuscule astronomique
Lune
Durée de lumière visible
Longueur du jour
Tomorrow will be .
, % of the Moon is Illuminated

Extrêmes aujourd'hui

State Highs State Lows

Community

WunderPhotos

Upload Photos

1,941,990 Photos téléchargées !

WunderBlog® & News

Nearby

Qualité de l'air

  Qualité de l'air Indice de la qualité de l'air Polluant
Not available.

Épaisseur de neige

Station Depth Altitude

Activité sismique

Ville Distance Mag. Time & Date
Minimum magnitude displayed is 2.5.

Températures des eaux côtières

Lieu Température

Stations

Stations météo à proximité

Emplacement de la station Température Refroidissement éolien Point de rosée Humidité Vent Precip. Alt. Mise à jour Type
                   

Watches & Warnings

There are currently no watches in effect.